Time;durP1;ratioP1;P1;durP2;ratioP2;P2;SDS_P1;SDS_P2;PMS_P1;PMS_P2;Temp;Humidity;BMP_temperature;BMP_pressure;BME280_temperature;BME280_humidity;BME280_pressure;Samples;Min_cycle;Max_cycle;Signal;HPM_P1;HPM_P2
2022/08/19 00:01:52;;;;;;;;;;;;;;;-144.99;88.79;52223.88;5072950;28;19927;-78
2022/08/19 00:04:20;;;;;;;;;;;;;;;-144.99;88.82;52211.66;5087458;28;19984;-79
2022/08/19 00:06:47;;;;;;;;;;;;;;;-144.99;88.48;52223.88;5091032;28;19924;-80
2022/08/19 00:09:15;;;;;;;;;;;;;;;-144.99;88.50;52199.44;5072284;28;19989;-79
2022/08/19 00:11:42;;;;;;;;;;;;;;;-144.99;88.77;52207.59;5067301;28;19921;-77
2022/08/19 00:14:09;;;;;;;;;;;;;;;-144.99;88.98;52213.69;5068104;28;19932;-78
2022/08/19 00:16:38;;;;;;;;;;;;;;;-144.99;88.98;52223.88;5064516;28;19972;-78
2022/08/19 00:19:05;;;;;;;;;;;;;;;-144.99;88.71;52232.03;5071597;28;19978;-77
2022/08/19 00:21:31;;;;;;;;;;;;;;;-144.99;89.28;52236.13;5063733;28;19924;-76
2022/08/19 00:23:58;;;;;;;;;;;;;;;-144.99;90.37;52227.97;5078551;28;19928;-74
2022/08/19 00:26:25;;;;;;;;;;;;;;;-144.99;90.65;52252.44;5071131;28;19929;-74
2022/08/19 00:28:51;;;;;;;;;;;;;;;-144.99;91.44;52240.19;5076237;28;19924;-75
2022/08/19 00:31:17;;;;;;;;;;;;;;;-144.99;92.00;52244.28;5072449;28;19928;-75
2022/08/19 00:33:45;;;;;;;;;;;;;;;-144.99;91.14;52217.78;5070215;28;19924;-77
2022/08/19 00:36:12;;;;;;;;;;;;;;;-144.99;91.28;52227.97;5081412;28;19932;-76
2022/08/19 00:38:41;;;;;;;;;;;;;;;-144.99;91.22;52211.66;5074962;28;19924;-79
2022/08/19 00:41:08;;;;;;;;;;;;;;;-144.99;90.94;52207.59;5078015;28;19936;-76
2022/08/19 00:43:35;;;;;;;;;;;;;;;-144.99;91.16;52205.53;5070286;28;19929;-77
2022/08/19 00:46:02;;;;;;;;;;;;;;;-144.99;93.28;52215.75;5055679;28;19964;-74
2022/08/19 00:48:29;;;;;;;;;;;;;;;-144.99;94.51;52219.81;5068474;28;19925;-77
2022/08/19 00:50:57;;;;;;;;;;;;;;;-144.99;92.96;52219.81;5071536;28;20371;-74
2022/08/19 00:53:26;;;;;;;;;;;;;;;-144.99;95.14;52227.97;5073047;28;20015;-75
2022/08/19 00:55:54;;;;;;;;;;;;;;;-144.99;95.83;52240.19;5060984;28;19927;-75
2022/08/19 00:58:23;;;;;;;;;;;;;;;-144.99;96.15;52217.78;5063620;28;19929;-75
2022/08/19 01:00:49;;;;;;;;;;;;;;;-144.99;96.18;52234.09;5075616;28;19920;-78
2022/08/19 01:03:17;;;;;;;;;;;;;;;-144.99;96.88;52232.03;5076120;28;19924;-76
2022/08/19 01:05:44;;;;;;;;;;;;;;;-144.99;95.86;52213.69;5071843;28;19959;-76
2022/08/19 01:08:14;;;;;;;;;;;;;;;-144.99;96.02;52248.34;5073891;28;20015;-75
2022/08/19 01:10:42;;;;;;;;;;;;;;;-144.99;96.21;52215.75;5071048;28;19931;-73
2022/08/19 01:13:09;;;;;;;;;;;;;;;-144.99;96.68;52195.34;5070874;28;19934;-74
2022/08/19 01:15:39;;;;;;;;;;;;;;;-144.99;96.89;52256.50;5055924;28;20003;-75
2022/08/19 01:18:07;;;;;;;;;;;;;;;-144.99;97.25;52203.50;5065578;28;19921;-76
2022/08/19 01:20:34;;;;;;;;;;;;;;;-144.99;97.64;52240.19;5072586;28;19920;-76
2022/08/19 01:23:02;;;;;;;;;;;;;;;-144.99;97.54;52266.69;5073095;28;19924;-74
2022/08/19 01:25:32;;;;;;;;;;;;;;;-144.99;97.36;52258.53;5057790;28;20019;-77
2022/08/19 01:27:58;;;;;;;;;;;;;;;-144.99;97.75;52207.59;5064739;28;19924;-76
2022/08/19 01:30:26;;;;;;;;;;;;;;;-144.99;98.21;52215.75;5071430;28;20051;-76
2022/08/19 01:32:53;;;;;;;;;;;;;;;-144.99;99.45;52240.19;5056406;28;19946;-75
2022/08/19 01:35:20;;;;;;;;;;;;;;;-144.99;98.48;52215.75;5069245;28;19925;-76
2022/08/19 01:37:48;;;;;;;;;;;;;;;-144.99;97.64;52217.78;5067302;28;19925;-77
2022/08/19 01:40:16;;;;;;;;;;;;;;;-144.99;97.62;52227.97;5068057;28;19929;-77
2022/08/19 01:42:42;;;;;;;;;;;;;;;-144.99;97.81;52250.38;5076513;28;20015;-76
2022/08/19 01:45:09;;;;;;;;;;;;;;;-144.99;97.77;52244.28;5058873;28;19925;-78
2022/08/19 01:47:40;;;;;;;;;;;;;;;-144.99;97.93;52207.59;4865664;28;10000126;-76
2022/08/19 01:50:08;;;;;;;;;;;;;;;-144.99;98.07;52207.59;5069477;28;20670;-73
2022/08/19 01:52:35;;;;;;;;;;;;;;;-144.99;98.26;52240.19;5077193;28;20011;-75
2022/08/19 01:55:02;;;;;;;;;;;;;;;-144.99;98.28;52258.53;5074726;28;19967;-75
2022/08/19 01:57:30;;;;;;;;;;;;;;;-144.99;97.88;52234.09;5069252;28;20312;-75
2022/08/19 01:59:56;;;;;;;;;;;;;;;-144.99;97.74;52240.19;5096330;22;20952;-75
2022/08/19 02:02:23;;;;;;;;;;;;;;;-144.99;98.23;52227.97;5075236;28;20334;-74
2022/08/19 02:04:50;;;;;;;;;;;;;;;-144.99;98.46;52195.34;5070365;28;19920;-76
2022/08/19 02:07:16;;;;;;;;;;;;;;;-144.99;98.86;52250.38;5071820;28;19921;-77
2022/08/19 02:09:42;;;;;;;;;;;;;;;-144.99;99.11;52221.84;5065752;28;19920;-75
2022/08/19 02:12:09;;;;;;;;;;;;;;;-144.99;99.10;52256.50;5069918;28;20004;-76
2022/08/19 02:14:37;;;;;;;;;;;;;;;-144.99;99.13;52203.50;5060797;28;19920;-76
2022/08/19 02:17:04;;;;;;;;;;;;;;;-144.99;100.00;52234.09;5065452;28;19935;-77
2022/08/19 02:19:32;;;;;;;;;;;;;;;-144.99;99.27;52244.28;5055108;28;19967;-76
2022/08/19 02:21:58;;;;;;;;;;;;;;;-144.99;99.22;52244.28;5071488;28;19925;-76
2022/08/19 02:24:25;;;;;;;;;;;;;;;-144.99;98.85;52260.56;5069207;28;20376;-77
2022/08/19 02:26:52;;;;;;;;;;;;;;;-144.99;98.98;52240.19;5069928;28;19921;-77
2022/08/19 02:29:18;;;;;;;;;;;;;;;-144.99;99.67;52207.59;5072137;28;19986;-77
2022/08/19 02:31:46;;;;;;;;;;;;;;;-144.99;99.03;52211.66;5069306;28;19921;-77
2022/08/19 02:34:12;;;;;;;;;;;;;;;-144.99;98.68;52230.00;5088414;28;19921;-77
2022/08/19 02:36:38;;;;;;;;;;;;;;;-144.99;98.33;52260.56;5076131;28;20007;-77
2022/08/19 02:39:04;;;;;;;;;;;;;;;-144.99;98.19;52232.03;5071597;28;19996;-77
2022/08/19 02:41:31;;;;;;;;;;;;;;;-144.99;98.06;52179.06;5060738;28;19948;-77
2022/08/19 02:43:58;;;;;;;;;;;;;;;-144.99;100.00;52244.28;5070072;28;19936;-77
2022/08/19 02:46:26;;;;;;;;;;;;;;;-144.99;99.08;52217.78;5062531;28;20372;-76
2022/08/19 02:48:55;;;;;;;;;;;;;;;-144.99;100.00;52266.69;5057105;28;19979;-77
2022/08/19 02:51:24;;;;;;;;;;;;;;;-144.99;99.22;52234.09;5072062;28;19925;-76
2022/08/19 02:53:50;;;;;;;;;;;;;;;-144.99;100.00;52236.13;5069578;28;19920;-76
2022/08/19 02:56:17;;;;;;;;;;;;;;;-144.99;99.49;52232.03;5071045;28;19920;-77
2022/08/19 02:58:43;;;;;;;;;;;;;;;-144.99;99.19;52256.50;5070852;28;19992;-76
2022/08/19 03:01:11;;;;;;;;;;;;;;;-144.99;99.07;52227.97;5075665;28;19981;-78
2022/08/19 03:03:37;;;;;;;;;;;;;;;-144.99;99.27;52256.50;5074930;28;19921;-76
2022/08/19 03:06:09;;;;;;;;;;;;;;;-144.99;100.00;52234.09;5060384;28;19927;-77
2022/08/19 03:08:36;;;;;;;;;;;;;;;-144.99;100.00;52223.88;5066693;28;19931;-77
2022/08/19 03:11:03;;;;;;;;;;;;;;;-144.99;99.96;52207.59;5071489;28;20020;-77
2022/08/19 03:13:29;;;;;;;;;;;;;;;-144.99;99.90;52260.56;5073549;28;19924;-79
2022/08/19 03:15:55;;;;;;;;;;;;;;;-144.99;99.83;52232.03;5067312;28;21047;-77
2022/08/19 03:18:22;;;;;;;;;;;;;;;-144.99;100.00;52248.34;5071174;28;19932;-78
2022/08/19 03:20:49;;;;;;;;;;;;;;;-144.99;100.00;52262.63;5072372;28;19920;-78
2022/08/19 03:23:17;;;;;;;;;;;;;;;-144.99;100.00;52240.19;5073036;28;19988;-79
2022/08/19 03:25:45;;;;;;;;;;;;;;;-144.99;100.00;52250.38;5073679;28;19920;-78
2022/08/19 03:28:12;;;;;;;;;;;;;;;-144.99;100.00;52232.03;5072086;28;19971;-78
2022/08/19 03:30:39;;;;;;;;;;;;;;;-144.99;100.00;52256.50;5073075;28;19973;-78
2022/08/19 03:33:06;;;;;;;;;;;;;;;-144.99;100.00;52232.03;5066636;28;19933;-78
2022/08/19 03:35:32;;;;;;;;;;;;;;;-144.99;100.00;52232.03;5063510;28;20023;-79
2022/08/19 03:37:59;;;;;;;;;;;;;;;-144.99;100.00;52256.50;5073068;28;19930;-79
2022/08/19 03:40:27;;;;;;;;;;;;;;;-144.99;100.00;52244.28;5071286;28;19980;-77
2022/08/19 03:42:53;;;;;;;;;;;;;;;-144.99;100.00;52262.63;5071267;28;19975;-77
2022/08/19 03:45:20;;;;;;;;;;;;;;;-144.99;100.00;52240.19;5071000;28;19925;-77
2022/08/19 03:47:46;;;;;;;;;;;;;;;-144.99;100.00;52219.81;5063500;28;19963;-77
2022/08/19 03:50:12;;;;;;;;;;;;;;;-144.99;100.00;52240.19;5068978;28;19930;-76
2022/08/19 03:52:39;;;;;;;;;;;;;;;-144.99;100.00;52244.28;5077156;28;19930;-78
2022/08/19 03:55:06;;;;;;;;;;;;;;;-144.99;100.00;52197.41;5075659;28;19931;-77
2022/08/19 03:57:34;;;;;;;;;;;;;;;-144.99;100.00;52266.69;5072333;28;19921;-75
2022/08/19 04:00:01;;;;;;;;;;;;;;;-144.99;100.00;52264.66;5073686;28;20039;-75
2022/08/19 04:02:27;;;;;;;;;;;;;;;-144.99;100.00;52260.56;5084051;28;19920;-77
2022/08/19 04:04:54;;;;;;;;;;;;;;;-144.99;100.00;52240.19;5075088;28;19931;-77
2022/08/19 04:07:21;;;;;;;;;;;;;;;-144.99;100.00;52264.66;5072602;28;19960;-77
2022/08/19 04:09:47;;;;;;;;;;;;;;;-144.99;100.00;52227.97;5070418;28;19970;-78
2022/08/19 04:12:14;;;;;;;;;;;;;;;-144.99;100.00;52230.00;5074856;28;19935;-79
2022/08/19 04:14:42;;;;;;;;;;;;;;;-144.99;100.00;52236.13;5075773;28;19954;-77
2022/08/19 04:17:09;;;;;;;;;;;;;;;-144.99;100.00;52232.03;5061729;28;20312;-77
2022/08/19 04:19:36;;;;;;;;;;;;;;;-144.99;100.00;52244.28;5075923;28;19925;-78
2022/08/19 04:22:03;;;;;;;;;;;;;;;-144.99;100.00;52197.41;5087888;28;19951;-77
2022/08/19 04:24:29;;;;;;;;;;;;;;;-144.99;100.00;52219.81;5085290;28;19971;-75
2022/08/19 04:26:55;;;;;;;;;;;;;;;-144.99;100.00;52232.03;5075445;28;19920;-75
2022/08/19 04:29:24;;;;;;;;;;;;;;;-144.99;100.00;52260.56;5073439;28;19946;-75
2022/08/19 04:31:53;;;;;;;;;;;;;;;-144.99;100.00;52248.34;5074378;28;20608;-75
2022/08/19 04:34:22;;;;;;;;;;;;;;;-144.99;100.00;52248.34;5075568;28;19936;-75
2022/08/19 04:36:50;;;;;;;;;;;;;;;-144.99;100.00;52248.34;5074749;28;19921;-76
2022/08/19 04:39:17;;;;;;;;;;;;;;;-144.99;100.00;52262.63;5073277;28;19981;-75
2022/08/19 04:44:30;;;;;;;;;;;;;;;-144.99;100.00;52264.66;5073370;28;20010;-76
2022/08/19 04:46:58;;;;;;;;;;;;;;;-144.99;100.00;52256.50;5072904;28;19927;-75
2022/08/19 04:49:25;;;;;;;;;;;;;;;-144.99;100.00;52256.50;5058999;28;19990;-76
2022/08/19 04:51:53;;;;;;;;;;;;;;;-144.99;100.00;52246.31;5071972;28;20015;-76
2022/08/19 04:54:22;;;;;;;;;;;;;;;-144.99;100.00;52221.84;5073043;28;20536;-76
2022/08/19 04:56:49;;;;;;;;;;;;;;;-144.99;100.00;52246.31;5072773;28;19970;-75
2022/08/19 04:59:16;;;;;;;;;;;;;;;-144.99;100.00;52268.72;5073648;28;19920;-75
2022/08/19 05:01:43;;;;;;;;;;;;;;;-144.99;100.00;52215.75;5072351;28;19967;-76
2022/08/19 05:04:12;;;;;;;;;;;;;;;-144.99;100.00;52254.47;5071710;28;19948;-75
2022/08/19 05:06:40;;;;;;;;;;;;;;;-144.99;100.00;52244.28;5073186;28;19934;-76
2022/08/19 05:09:06;;;;;;;;;;;;;;;-144.99;100.00;52215.75;5074920;28;19959;-76
2022/08/19 05:11:33;;;;;;;;;;;;;;;-144.99;100.00;52195.34;5065958;28;20295;-75
2022/08/19 05:14:00;;;;;;;;;;;;;;;-144.99;100.00;52283.00;5074569;28;19960;-76
2022/08/19 05:16:27;;;;;;;;;;;;;;;-144.99;100.00;52227.97;5067912;28;19920;-75
2022/08/19 05:24:23;;;;;;;;;;;;;;;-144.99;100.00;52215.75;5074337;28;20002;-75
2022/08/19 05:26:52;;;;;;;;;;;;;;;-144.99;100.00;52260.56;5073038;28;19999;-74
2022/08/19 05:29:19;;;;;;;;;;;;;;;-144.99;100.00;52219.81;5072504;28;19960;-74
2022/08/19 05:31:46;;;;;;;;;;;;;;;-144.99;100.00;52240.19;5070938;28;19955;-76
2022/08/19 05:34:13;;;;;;;;;;;;;;;-144.99;100.00;52268.72;5085228;28;19920;-78
2022/08/19 05:36:42;;;;;;;;;;;;;;;-144.99;100.00;52236.13;5086090;28;19927;-80
2022/08/19 05:39:11;;;;;;;;;;;;;;;-144.99;100.00;52248.34;5078687;28;20322;-76
2022/08/19 05:41:42;;;;;;;;;;;;;;;-144.99;100.00;52236.13;5071753;28;20015;-78
2022/08/19 05:44:09;;;;;;;;;;;;;;;-144.99;100.00;52227.97;5074861;28;19927;-77
2022/08/19 05:46:37;;;;;;;;;;;;;;;-144.99;100.00;52260.56;5073852;28;20084;-77
2022/08/19 05:49:04;;;;;;;;;;;;;;;-144.99;100.00;52215.75;5062647;28;19925;-77
2022/08/19 05:51:30;;;;;;;;;;;;;;;-144.99;100.00;52252.44;5069485;28;20375;-77
2022/08/19 05:53:58;;;;;;;;;;;;;;;-144.99;100.00;52230.00;5073616;28;20015;-77
2022/08/19 05:56:24;;;;;;;;;;;;;;;-144.99;100.00;52270.78;5072875;28;20283;-77
2022/08/19 05:58:52;;;;;;;;;;;;;;;-144.99;100.00;52215.75;5074723;28;19928;-79
2022/08/19 06:01:19;;;;;;;;;;;;;;;-144.99;100.00;52230.00;5068483;28;20430;-76
2022/08/19 06:03:47;;;;;;;;;;;;;;;-144.99;100.00;52264.66;5070718;28;19933;-77
2022/08/19 06:06:15;;;;;;;;;;;;;;;-144.99;100.00;52227.97;5073262;28;19928;-77
2022/08/19 06:08:42;;;;;;;;;;;;;;;-144.99;100.00;52203.50;5070507;28;20306;-77
2022/08/19 06:11:14;;;;;;;;;;;;;;;-144.99;100.00;52201.47;5062043;28;19928;-76
2022/08/19 06:13:41;;;;;;;;;;;;;;;-144.99;100.00;52219.81;5068531;28;19936;-76
2022/08/19 06:16:07;;;;;;;;;;;;;;;-144.99;100.00;52264.66;5071983;28;19921;-75
2022/08/19 06:18:34;;;;;;;;;;;;;;;-144.99;100.00;52232.03;5056321;28;20432;-76
2022/08/19 06:21:04;;;;;;;;;;;;;;;-144.99;100.00;52256.50;5068476;28;19939;-75
2022/08/19 06:23:30;;;;;;;;;;;;;;;-144.99;99.91;52232.03;5075322;28;19928;-76
2022/08/19 06:25:57;;;;;;;;;;;;;;;-144.99;99.53;52211.66;5077045;28;20015;-77
2022/08/19 06:28:25;;;;;;;;;;;;;;;-144.99;98.30;52232.03;5061671;28;20004;-76
2022/08/19 06:30:51;;;;;;;;;;;;;;;-144.99;98.59;52248.34;5072013;28;19975;-75
2022/08/19 06:33:17;;;;;;;;;;;;;;;-144.99;98.23;52240.19;5069779;28;19948;-76
2022/08/19 06:35:44;;;;;;;;;;;;;;;-144.99;98.39;52227.97;5070563;28;20019;-75
2022/08/19 06:38:10;;;;;;;;;;;;;;;-144.99;98.34;52236.13;5072762;28;19983;-76
2022/08/19 06:40:37;;;;;;;;;;;;;;;-144.99;98.77;52232.03;5072920;28;19928;-75
2022/08/19 06:43:04;;;;;;;;;;;;;;;-144.99;98.05;52280.97;5067318;28;19924;-76
2022/08/19 06:45:32;;;;;;;;;;;;;;;-144.99;97.82;52246.31;5070439;28;20291;-76
2022/08/19 06:47:58;;;;;;;;;;;;;;;-144.99;97.32;52268.72;5064802;28;20327;-76
2022/08/19 06:50:25;;;;;;;;;;;;;;;-144.99;100.00;52244.28;5065335;28;20008;-77
2022/08/19 06:52:51;;;;;;;;;;;;;;;-144.99;99.72;52219.81;5070032;28;19920;-76
2022/08/19 06:55:18;;;;;;;;;;;;;;;-144.99;98.05;52244.28;5072146;28;20003;-76
2022/08/19 06:57:45;;;;;;;;;;;;;;;-144.99;98.24;52203.50;5058410;28;19955;-75
2022/08/19 07:00:13;;;;;;;;;;;;;;;-144.99;98.08;52244.28;5071036;28;19920;-77
2022/08/19 07:02:41;;;;;;;;;;;;;;;-144.99;97.32;52264.66;5078977;28;19920;-76
2022/08/19 07:05:08;;;;;;;;;;;;;;;-144.99;98.78;52248.34;5068058;28;19931;-76
2022/08/19 07:07:34;;;;;;;;;;;;;;;-144.99;98.63;52217.78;5073554;28;19920;-78
2022/08/19 07:10:01;;;;;;;;;;;;;;;-144.99;97.05;52268.72;5072969;28;19937;-74
2022/08/19 07:12:28;;;;;;;;;;;;;;;-144.99;98.67;52236.13;5070062;28;20029;-74
2022/08/19 07:14:55;;;;;;;;;;;;;;;-144.99;99.41;52256.50;5073748;28;19920;-74
2022/08/19 07:17:21;;;;;;;;;;;;;;;-144.99;99.60;52219.81;5073596;28;20026;-74
2022/08/19 07:19:50;;;;;;;;;;;;;;;-144.99;97.82;52219.81;5063959;28;19959;-74
2022/08/19 07:22:17;;;;;;;;;;;;;;;-144.99;95.51;52234.09;5071436;28;19920;-75
2022/08/19 07:24:44;;;;;;;;;;;;;;;-144.99;95.56;52203.50;5071994;28;19921;-75
2022/08/19 07:27:11;;;;;;;;;;;;;;;-144.99;95.44;52246.31;5082630;28;19940;-75
2022/08/19 07:29:37;;;;;;;;;;;;;;;-144.99;98.09;52264.66;5073949;28;19920;-75
2022/08/19 07:32:04;;;;;;;;;;;;;;;-144.99;98.47;52236.13;5071304;28;19992;-74
2022/08/19 07:34:34;;;;;;;;;;;;;;;-144.99;99.17;52248.34;5075129;28;19959;-75
2022/08/19 07:37:02;;;;;;;;;;;;;;;-144.99;98.35;52230.00;5076392;28;19943;-75
2022/08/19 07:39:29;;;;;;;;;;;;;;;-144.99;98.59;52232.03;5074366;28;19945;-74
2022/08/19 07:41:56;;;;;;;;;;;;;;;-144.99;98.13;52256.50;5068510;28;20388;-73
2022/08/19 07:44:23;;;;;;;;;;;;;;;-144.99;96.73;52203.50;5065521;28;19920;-74
2022/08/19 07:46:52;;;;;;;;;;;;;;;-144.99;96.47;52197.41;5067694;28;20639;-73
2022/08/19 07:49:18;;;;;;;;;;;;;;;-144.99;96.17;52256.50;5069152;28;20361;-72
2022/08/19 07:51:45;;;;;;;;;;;;;;;-144.99;97.39;52219.81;5068938;28;19997;-73
2022/08/19 07:54:13;;;;;;;;;;;;;;;-144.99;97.72;52223.88;5068305;28;19920;-73
2022/08/19 07:56:40;;;;;;;;;;;;;;;-144.99;98.13;52250.38;5067184;28;19920;-74
2022/08/19 07:59:07;;;;;;;;;;;;;;;-144.99;97.51;52260.56;5066324;28;19979;-74
2022/08/19 08:01:34;;;;;;;;;;;;;;;-144.99;97.27;52232.03;5070660;28;20255;-73
2022/08/19 08:09:32;;;;;;;;;;;;;;;-144.99;99.05;52223.88;5074581;28;20017;-73
2022/08/19 08:14:41;;;;;;;;;;;;;;;-144.99;99.25;52260.56;5036585;28;20300;-78
2022/08/19 08:17:08;;;;;;;;;;;;;;;-144.99;99.46;52238.16;5047957;28;20007;-79
2022/08/19 08:19:35;;;;;;;;;;;;;;;-144.99;99.95;52236.13;5052853;28;19920;-78
2022/08/19 08:22:02;;;;;;;;;;;;;;;-144.99;100.00;52244.28;5058736;28;19920;-79
2022/08/19 08:24:31;;;;;;;;;;;;;;;-144.99;100.00;52260.56;5049586;28;19928;-79
2022/08/19 08:26:59;;;;;;;;;;;;;;;-144.99;100.00;52240.19;5061077;28;19927;-78
2022/08/19 08:29:26;;;;;;;;;;;;;;;-144.99;100.00;52252.44;5052284;28;19921;-79
2022/08/19 08:31:53;;;;;;;;;;;;;;;-144.99;100.00;52244.28;5058931;28;19920;-78
2022/08/19 08:34:21;;;;;;;;;;;;;;;-144.99;100.00;52264.66;5052492;28;19927;-77
2022/08/19 08:36:48;;;;;;;;;;;;;;;-144.99;100.00;52236.13;5060684;28;19920;-78
2022/08/19 08:39:15;;;;;;;;;;;;;;;-144.99;100.00;52285.03;5050513;28;19921;-77
2022/08/19 08:41:47;;;;;;;;;;;;;;;-144.99;100.00;52232.03;5047867;28;19968;-78
2022/08/19 08:44:15;;;;;;;;;;;;;;;-144.99;100.00;52285.03;5053104;28;19925;-81
2022/08/19 08:46:45;;;;;;;;;;;;;;;-144.99;100.00;52242.22;5056278;28;19947;-79
2022/08/19 08:49:20;;;;;;;;;;;;;;;-144.99;100.00;52232.03;5066433;28;19924;-80
2022/08/19 08:51:49;;;;;;;;;;;;;;;-144.99;100.00;52254.47;5060990;28;19932;-78
2022/08/19 08:54:18;;;;;;;;;;;;;;;-144.99;100.00;52280.97;5059854;28;19925;-79
2022/08/19 08:56:48;;;;;;;;;;;;;;;-144.99;100.00;52258.53;5054981;28;20410;-78
2022/08/19 08:59:17;;;;;;;;;;;;;;;-144.99;100.00;52236.13;5057168;28;19947;-78
2022/08/19 09:01:44;;;;;;;;;;;;;;;-144.99;100.00;52260.56;5051110;28;19937;-77
2022/08/19 09:04:12;;;;;;;;;;;;;;;-144.99;100.00;52266.69;5045740;28;19925;-78
2022/08/19 09:06:41;;;;;;;;;;;;;;;-144.99;100.00;52262.63;5054613;28;19920;-78
2022/08/19 09:09:15;;;;;;;;;;;;;;;-144.99;100.00;52258.53;5060049;28;19936;-77
2022/08/19 09:11:49;;;;;;;;;;;;;;;-144.99;100.00;52256.50;5052494;28;19959;-77
2022/08/19 09:14:21;;;;;;;;;;;;;;;-144.99;100.00;52260.56;5045093;28;19920;-77
2022/08/19 09:16:48;;;;;;;;;;;;;;;-144.99;100.00;52215.75;5049227;28;19920;-77
2022/08/19 09:19:15;;;;;;;;;;;;;;;-144.99;100.00;52248.34;5049302;28;19951;-77
2022/08/19 09:21:42;;;;;;;;;;;;;;;-144.99;100.00;52207.59;5070013;28;19977;-77
2022/08/19 09:24:08;;;;;;;;;;;;;;;-144.99;100.00;52227.97;5076893;28;19925;-79
2022/08/19 09:26:35;;;;;;;;;;;;;;;-144.99;100.00;52232.03;5072108;28;19947;-77
2022/08/19 09:29:04;;;;;;;;;;;;;;;-144.99;100.00;52232.03;5081196;28;19925;-76
2022/08/19 09:31:32;;;;;;;;;;;;;;;-144.99;100.00;52260.56;5057609;28;19935;-77
2022/08/19 09:33:59;;;;;;;;;;;;;;;-144.99;100.00;52227.97;5044249;28;20303;-75
2022/08/19 09:36:26;;;;;;;;;;;;;;;-144.99;100.00;52207.59;5051218;28;20062;-77
2022/08/19 09:38:52;;;;;;;;;;;;;;;-144.99;100.00;52227.97;5058004;28;19934;-78
2022/08/19 09:41:20;;;;;;;;;;;;;;;-144.99;100.00;52205.53;5054169;28;19928;-79
2022/08/19 09:43:51;;;;;;;;;;;;;;;-144.99;100.00;52223.88;5057626;28;19924;-79
2022/08/19 09:46:20;;;;;;;;;;;;;;;-144.99;100.00;52213.69;5058012;28;19924;-77
2022/08/19 09:48:48;;;;;;;;;;;;;;;-144.99;100.00;52203.50;5056560;28;19931;-79
2022/08/19 09:51:15;;;;;;;;;;;;;;;-144.99;100.00;52219.81;5065213;28;19925;-78
2022/08/19 09:53:42;;;;;;;;;;;;;;;-144.99;100.00;52203.50;5063658;28;19925;-79
2022/08/19 09:56:09;;;;;;;;;;;;;;;-144.99;100.00;52207.59;5056997;28;19925;-80
2022/08/19 09:58:36;;;;;;;;;;;;;;;-144.99;100.00;52187.19;5053067;28;19956;-76
2022/08/19 10:01:04;;;;;;;;;;;;;;;-144.99;100.00;52197.41;5047075;28;20323;-79
2022/08/19 10:03:32;;;;;;;;;;;;;;;-144.99;99.52;52215.75;5052449;28;20392;-78
2022/08/19 10:06:00;;;;;;;;;;;;;;;-144.99;97.49;52223.88;5049310;28;20574;-78
2022/08/19 10:08:29;;;;;;;;;;;;;;;-144.99;96.07;52193.31;5063715;28;19929;-79
2022/08/19 10:10:56;;;;;;;;;;;;;;;-144.99;94.13;52219.81;5074464;28;19944;-78
2022/08/19 10:13:25;;;;;;;;;;;;;;;-144.99;93.01;52215.75;5075849;28;19936;-81
2022/08/19 10:15:52;;;;;;;;;;;;;;;-144.99;92.88;52181.09;5060515;28;19964;-78
2022/08/19 10:18:19;;;;;;;;;;;;;;;-144.99;90.82;52187.19;5051228;28;20015;-78
2022/08/19 10:20:48;;;;;;;;;;;;;;;-144.99;91.03;52183.13;5047073;28;19920;-80
2022/08/19 10:23:14;;;;;;;;;;;;;;;-144.99;90.82;52181.09;5049513;28;19928;-78
2022/08/19 10:25:41;;;;;;;;;;;;;;;-144.99;90.79;52191.28;5049211;28;19982;-77
2022/08/19 10:28:08;;;;;;;;;;;;;;;-144.99;90.39;52172.94;5051488;28;19955;-80
2022/08/19 10:30:34;;;;;;;;;;;;;;;-144.99;89.05;52179.06;5054679;28;19982;-79
2022/08/19 10:33:01;;;;;;;;;;;;;;;-144.99;88.18;52219.81;5058404;28;20027;-79
2022/08/19 10:35:28;;;;;;;;;;;;;;;-144.99;87.96;52191.28;5066255;28;19967;-80
2022/08/19 10:37:58;;;;;;;;;;;;;;;-144.99;87.02;52219.81;5058076;28;19947;-78
2022/08/19 10:40:25;;;;;;;;;;;;;;;-144.99;88.19;52227.97;5054789;28;20000;-79
2022/08/19 10:42:51;;;;;;;;;;;;;;;-144.99;87.69;52230.00;5056049;28;19921;-79
2022/08/19 10:45:18;;;;;;;;;;;;;;;-144.99;87.99;52209.63;5055347;28;20163;-77
2022/08/19 10:47:44;;;;;;;;;;;;;;;-144.99;87.27;52215.75;5063215;28;20011;-77
2022/08/19 10:52:56;;;;;;;;;;;;;;;-144.99;87.34;52170.91;5051943;28;20251;-80
2022/08/19 10:58:12;;;;;;;;;;;;;;;-144.99;84.98;52166.81;5049119;28;20105;-76
2022/08/19 11:00:40;;;;;;;;;;;;;;;-144.99;84.49;52187.19;5049891;28;20058;-78
2022/08/19 11:03:06;;;;;;;;;;;;;;;-144.99;81.43;52158.66;5047785;28;19947;-78
2022/08/19 11:05:33;;;;;;;;;;;;;;;-144.99;79.90;52207.59;5049379;28;20420;-77
2022/08/19 11:08:01;;;;;;;;;;;;;;;-144.99;78.47;52168.84;5041482;28;19921;-78
2022/08/19 11:10:27;;;;;;;;;;;;;;;-144.99;76.99;52152.56;5045911;28;20027;-78
2022/08/19 11:12:55;;;;;;;;;;;;;;;-144.99;77.23;52209.63;5053398;28;20011;-75
2022/08/19 11:15:22;;;;;;;;;;;;;;;-144.99;77.16;52199.44;5060221;28;20351;-79
2022/08/19 11:17:48;;;;;;;;;;;;;;;-144.99;78.24;52203.50;5038477;28;19925;-79
2022/08/19 11:20:15;;;;;;;;;;;;;;;-144.99;79.19;52207.59;5050071;28;19972;-80
2022/08/19 11:22:42;;;;;;;;;;;;;;;-144.99;79.46;52187.19;5052057;28;19963;-78
2022/08/19 11:25:11;;;;;;;;;;;;;;;-144.99;79.54;52160.72;5052428;28;19927;-78
2022/08/19 11:27:38;;;;;;;;;;;;;;;-144.99;79.16;52162.75;5052858;28;19963;-77
2022/08/19 11:30:07;;;;;;;;;;;;;;;-144.99;79.21;52217.78;5053086;28;19968;-79
2022/08/19 11:32:33;;;;;;;;;;;;;;;-144.99;79.10;52195.34;5052083;28;20024;-79
2022/08/19 11:34:59;;;;;;;;;;;;;;;-144.99;78.65;52191.28;5053248;28;19921;-77
2022/08/19 11:37:26;;;;;;;;;;;;;;;-144.99;78.36;52207.59;5045862;28;19942;-78
2022/08/19 11:39:53;;;;;;;;;;;;;;;-144.99;77.65;52168.84;5052794;28;19986;-78
2022/08/19 11:45:05;;;;;;;;;;;;;;;-144.99;77.51;52126.06;5051805;28;19931;-79
2022/08/19 11:47:32;;;;;;;;;;;;;;;-144.99;76.92;52160.72;5053005;28;19928;-78
2022/08/19 11:49:58;;;;;;;;;;;;;;;-144.99;74.44;52170.91;5053172;28;20427;-76
2022/08/19 11:52:25;;;;;;;;;;;;;;;-144.99;74.29;52156.63;5053843;28;19924;-77
2022/08/19 11:54:51;;;;;;;;;;;;;;;-144.99;73.68;52069.00;5054500;28;19927;-77
2022/08/19 11:57:19;;;;;;;;;;;;;;;-144.99;71.70;52132.19;5058775;28;20003;-79
2022/08/19 11:59:50;;;;;;;;;;;;;;;-144.99;69.09;52158.66;5075794;28;19920;-78
2022/08/19 12:02:16;;;;;;;;;;;;;;;-144.99;66.18;52081.22;5061028;28;19923;-78
2022/08/19 12:04:42;;;;;;;;;;;;;;;-144.99;65.42;52134.22;5056199;28;19917;-79
2022/08/19 12:07:09;;;;;;;;;;;;;;;-144.99;64.47;52109.75;5055351;28;19928;-79
2022/08/19 12:09:35;;;;;;;;;;;;;;;-144.99;63.68;52089.38;5053838;28;19913;-79
2022/08/19 12:12:02;;;;;;;;;;;;;;;-144.99;62.80;52101.59;5056796;28;19932;-79
2022/08/19 12:14:31;;;;;;;;;;;;;;;-144.99;61.58;52060.84;5053293;28;19921;-80
2022/08/19 12:16:59;;;;;;;;;;;;;;;-144.99;60.31;52140.31;5083386;28;19992;-78
2022/08/19 12:19:26;;;;;;;;;;;;;;;-144.99;60.24;52071.03;5075429;28;19913;-82
2022/08/19 12:21:55;;;;;;;;;;;;;;;-144.99;59.73;52105.69;5080892;28;19939;-81
2022/08/19 12:24:23;;;;;;;;;;;;;;;-144.99;59.54;52105.69;5073099;28;19956;-78
2022/08/19 12:26:49;;;;;;;;;;;;;;;-144.99;58.97;52109.75;5057066;28;20003;-78
2022/08/19 12:29:16;;;;;;;;;;;;;;;-144.99;58.86;52079.19;5057630;28;19964;-79
2022/08/19 12:31:42;;;;;;;;;;;;;;;-144.99;57.66;52071.03;5064718;28;19913;-79
2022/08/19 12:34:10;;;;;;;;;;;;;;;-144.99;57.85;52113.84;5080287;28;19913;-79
2022/08/19 12:36:37;;;;;;;;;;;;;;;-144.99;58.34;52126.06;5080186;28;19913;-80
2022/08/19 12:39:05;;;;;;;;;;;;;;;-144.99;58.61;52138.28;5079371;28;19919;-78
2022/08/19 12:41:31;;;;;;;;;;;;;;;-144.99;59.52;52124.03;5058995;28;19921;-80
2022/08/19 12:43:58;;;;;;;;;;;;;;;-144.99;59.85;52130.13;5060557;28;20306;-80
2022/08/19 12:46:24;;;;;;;;;;;;;;;-144.99;60.87;52146.44;5061044;28;19960;-79
2022/08/19 12:48:52;;;;;;;;;;;;;;;-144.99;61.76;52134.22;5076189;28;19912;-80